createdAt,value
2019-01-09T00:04:08.014Z,60.71
2019-01-09T00:08:58.368Z,61.60
2019-01-09T00:13:49.142Z,60.08
2019-01-09T00:18:38.851Z,61.12
2019-01-09T00:23:33.113Z,61.80
2019-01-09T00:28:22.666Z,62.21
2019-01-09T00:33:17.791Z,61.86
2019-01-09T00:38:08.118Z,62.11
2019-01-09T00:42:58.104Z,61.55
2019-01-09T00:47:47.890Z,61.70
2019-01-09T00:52:39.011Z,61.52
2019-01-09T00:57:28.571Z,61.64
2019-01-09T01:02:56.851Z,62.29
2019-01-09T01:08:19.493Z,62.89
2019-01-09T01:13:56.226Z,62.82
2019-01-09T01:19:33.377Z,61.77
2019-01-09T01:25:05.209Z,61.69
2019-01-09T01:30:36.915Z,63.04
2019-01-09T01:36:17.141Z,63.41
2019-01-09T01:41:54.328Z,61.75
2019-01-09T01:47:36.555Z,63.47
2019-01-09T01:52:58.616Z,62.55
2019-01-09T01:58:13.531Z,61.91
2019-01-09T02:03:38.684Z,63.55
2019-01-09T02:09:13.235Z,63.71
2019-01-09T02:14:39.884Z,63.78
2019-01-09T02:19:57.479Z,62.94
2019-01-09T02:25:25.307Z,62.21
2019-01-09T02:31:07.475Z,63.77
2019-01-09T02:35:56.814Z,63.24
2019-01-09T02:40:47.132Z,63.26
2019-01-09T02:45:37.477Z,62.89
2019-01-09T02:50:27.240Z,61.38
2019-01-09T02:55:17.267Z,62.21
2019-01-09T03:00:12.416Z,61.91
2019-01-09T03:05:02.785Z,61.51
2019-01-09T03:09:53.845Z,62.12
2019-01-09T03:14:43.375Z,62.71
2019-01-09T03:19:33.188Z,62.38
2019-01-09T03:24:22.851Z,63.06
2019-01-09T03:29:13.499Z,62.51
2019-01-09T03:34:04.334Z,63.26
2019-01-09T03:38:57.391Z,62.91
2019-01-09T03:43:48.337Z,62.97
2019-01-09T03:48:38.385Z,62.92
2019-01-09T03:53:29.195Z,61.64
2019-01-09T03:58:19.506Z,61.96
2019-01-09T04:03:10.058Z,62.47
2019-01-09T04:08:00.162Z,62.51
2019-01-09T04:12:50.697Z,62.63
2019-01-09T04:17:40.709Z,62.47
2019-01-09T04:22:31.041Z,61.67
2019-01-09T04:27:21.342Z,61.24
2019-01-09T04:32:12.686Z,62.49
2019-01-09T04:37:02.460Z,61.19
2019-01-09T04:41:53.088Z,62.57
2019-01-09T04:46:44.605Z,62.94
2019-01-09T04:51:35.936Z,63.06
2019-01-09T04:56:26.527Z,62.59
2019-01-09T05:01:17.846Z,61.47
2019-01-09T05:06:10.386Z,62.07
2019-01-09T05:11:02.305Z,61.98
2019-01-09T05:15:53.481Z,62.07
2019-01-09T05:20:45.970Z,61.73
2019-01-09T05:25:36.805Z,61.18
2019-01-09T05:30:30.116Z,61.58
2019-01-09T05:35:20.751Z,61.53
2019-01-09T05:40:11.020Z,61.91
2019-01-09T05:45:26.250Z,61.42
2019-01-09T05:50:21.598Z,61.85
2019-01-09T05:55:12.403Z,61.28
2019-01-09T06:00:27.158Z,61.79
2019-01-09T06:05:21.685Z,61.07
2019-01-09T06:10:13.054Z,61.43
2019-01-09T06:15:07.044Z,61.43
2019-01-09T06:20:01.200Z,60.47
2019-01-09T06:24:54.507Z,60.00
2019-01-09T06:29:45.323Z,60.03
2019-01-09T06:34:35.718Z,58.87
2019-01-09T06:39:28.626Z,64.47
2019-01-09T06:44:19.542Z,58.49
2019-01-09T06:49:10.342Z,58.45
2019-01-09T06:54:31.642Z,57.08
2019-01-09T07:00:00.327Z,56.44
2019-01-09T07:11:25.707Z,52.58
2019-01-09T07:16:51.334Z,51.48
2019-01-09T07:22:19.185Z,50.39
2019-01-09T07:27:42.731Z,49.99
2019-01-09T07:32:59.398Z,49.79
2019-01-09T07:38:20.661Z,49.81
2019-01-09T07:43:15.752Z,49.46
2019-01-09T07:48:08.822Z,48.58
2019-01-09T07:52:59.655Z,47.60
2019-01-09T07:58:30.238Z,47.39
2019-01-09T08:03:47.165Z,47.27
2019-01-09T08:08:40.941Z,46.43
2019-01-09T08:13:33.391Z,45.28
2019-01-09T08:18:25.995Z,45.77
2019-01-09T08:23:16.765Z,46.48
2019-01-09T08:28:07.586Z,44.68
2019-01-09T08:32:59.102Z,45.66
2019-01-09T08:37:50.043Z,42.93
2019-01-09T08:42:45.138Z,41.43
2019-01-09T08:47:35.982Z,41.61
2019-01-09T08:52:30.342Z,41.14
2019-01-09T08:57:21.941Z,39.88
2019-01-09T09:02:14.650Z,39.18
2019-01-09T09:07:18.328Z,39.43
2019-01-09T09:12:29.190Z,39.42
2019-01-09T09:17:47.133Z,40.63
2019-01-09T09:22:51.576Z,39.07
2019-01-09T09:27:49.308Z,37.92
2019-01-09T09:33:04.846Z,38.15
2019-01-09T09:38:08.370Z,36.90
2019-01-09T09:43:13.632Z,38.04
2019-01-09T09:48:33.592Z,36.64
2019-01-09T09:53:50.385Z,36.16
2019-01-09T09:59:06.737Z,35.76
2019-01-09T10:04:25.475Z,35.52
2019-01-09T10:09:46.482Z,34.29
2019-01-09T10:15:04.667Z,34.31
2019-01-09T10:19:58.776Z,35.50
2019-01-09T10:24:51.548Z,35.14
2019-01-09T10:29:44.806Z,33.65
2019-01-09T10:34:36.781Z,34.45
2019-01-09T10:39:28.343Z,34.89
2019-01-09T10:44:19.409Z,35.19
2019-01-09T10:49:10.551Z,35.42
2019-01-09T10:54:03.587Z,35.95
2019-01-09T10:58:56.627Z,34.99
2019-01-09T11:03:47.308Z,35.06
2019-01-09T11:08:46.927Z,35.29
2019-01-09T11:13:35.291Z,35.36
2019-01-09T11:18:25.679Z,34.66
2019-01-09T11:23:16.221Z,34.27
2019-01-09T11:28:08.276Z,34.93
2019-01-09T11:33:00.932Z,36.25
2019-01-09T11:37:53.023Z,35.88
2019-01-09T11:42:45.370Z,35.68
2019-01-09T11:47:36.465Z,36.59
2019-01-09T11:52:27.287Z,36.81
2019-01-09T11:57:18.079Z,36.75
2019-01-09T12:02:08.407Z,37.06
2019-01-09T12:06:59.242Z,37.17
2019-01-09T12:11:50.361Z,37.50
2019-01-09T12:16:43.569Z,38.50
2019-01-09T12:21:36.580Z,37.57
2019-01-09T12:26:27.082Z,37.95
2019-01-09T12:31:18.680Z,37.37
2019-01-09T12:36:08.743Z,37.06
2019-01-09T12:41:02.180Z,37.43
2019-01-09T12:45:52.389Z,37.12
2019-01-09T12:50:43.735Z,36.95
2019-01-09T12:55:35.065Z,36.58
2019-01-09T13:00:38.199Z,36.08
2019-01-09T13:05:28.515Z,35.78
2019-01-09T13:10:22.017Z,36.19
2019-01-09T13:15:12.551Z,36.20
2019-01-09T13:20:03.257Z,36.74
2019-01-09T13:24:55.118Z,37.13
2019-01-09T13:29:46.341Z,37.37
2019-01-09T13:34:37.563Z,37.45
2019-01-09T13:39:30.841Z,37.99
2019-01-09T13:44:20.965Z,37.88
2019-01-09T13:49:11.320Z,38.53
2019-01-09T13:54:02.830Z,38.67
2019-01-09T13:58:53.673Z,39.23
2019-01-09T14:03:45.981Z,39.16
2019-01-09T14:08:36.747Z,39.14
2019-01-09T14:13:28.176Z,39.83
2019-01-09T14:18:21.455Z,39.69
2019-01-09T14:23:12.122Z,39.80
2019-01-09T14:28:02.935Z,39.73
2019-01-09T14:32:55.546Z,40.01
2019-01-09T14:37:46.879Z,40.06
2019-01-09T14:42:37.707Z,40.01
2019-01-09T14:47:28.533Z,40.72
2019-01-09T14:52:18.906Z,40.88
2019-01-09T14:57:09.931Z,40.61
2019-01-09T15:02:01.277Z,41.73
2019-01-09T15:06:53.867Z,43.04
2019-01-09T15:11:44.646Z,43.76
2019-01-09T15:16:35.711Z,43.60
2019-01-09T15:21:26.798Z,43.30
2019-01-09T15:26:17.885Z,56.93
2019-01-09T15:31:09.472Z,44.05
2019-01-09T15:36:00.379Z,44.64
2019-01-09T15:40:52.349Z,44.98
2019-01-09T15:45:44.142Z,45.68
2019-01-09T15:50:38.611Z,46.14
2019-01-09T15:55:30.560Z,46.97
2019-01-09T16:00:36.330Z,48.44
2019-01-09T16:05:27.179Z,49.47
2019-01-09T16:10:20.974Z,50.10
2019-01-09T16:15:35.846Z,50.56
2019-01-09T16:20:31.678Z,51.22
2019-01-09T16:25:23.114Z,51.32
2019-01-09T16:30:53.614Z,51.91
2019-01-09T16:35:44.336Z,52.06
2019-01-09T16:40:34.687Z,53.01
2019-01-09T16:45:25.942Z,54.04
2019-01-09T16:50:19.873Z,54.74
2019-01-09T16:55:11.162Z,55.80
2019-01-09T17:00:03.320Z,57.04
2019-01-09T17:04:55.339Z,57.76
2019-01-09T17:09:46.207Z,58.17
2019-01-09T17:14:37.561Z,58.46
2019-01-09T17:19:30.633Z,58.84
2019-01-09T17:24:22.824Z,59.30
2019-01-09T17:29:17.112Z,59.61
2019-01-09T17:34:11.529Z,59.70
2019-01-09T17:39:01.966Z,59.75
2019-01-09T17:43:53.718Z,59.55
2019-01-09T17:48:44.906Z,59.42
2019-01-09T17:53:37.912Z,59.48
2019-01-09T17:58:48.730Z,59.55
2019-01-09T18:03:40.029Z,59.46
2019-01-09T18:08:32.101Z,59.53
2019-01-09T18:13:25.866Z,59.67
2019-01-09T18:18:18.887Z,60.24
2019-01-09T18:23:09.947Z,62.03
2019-01-09T18:28:00.840Z,63.60
2019-01-09T18:32:56.729Z,65.77
2019-01-09T18:38:19.804Z,67.92
2019-01-09T18:44:07.166Z,68.89
2019-01-09T18:50:06.012Z,70.66
2019-01-09T18:55:42.522Z,71.50
2019-01-09T19:01:16.198Z,72.25
2019-01-09T19:06:46.702Z,72.87
2019-01-09T19:12:16.324Z,73.73
2019-01-09T19:17:43.952Z,73.88
2019-01-09T19:23:05.893Z,74.43
2019-01-09T19:28:44.479Z,75.03
2019-01-09T19:34:11.151Z,75.63
2019-01-09T19:39:35.117Z,75.99
2019-01-09T19:45:04.131Z,76.47
2019-01-09T19:50:26.884Z,76.97
2019-01-09T19:55:47.439Z,77.50
2019-01-09T20:01:17.646Z,77.86
2019-01-09T20:13:06.812Z,77.55
2019-01-09T20:18:53.257Z,78.11
2019-01-09T20:24:11.929Z,78.18
2019-01-09T20:29:40.952Z,77.97
2019-01-09T20:35:13.560Z,78.30
2019-01-09T20:40:40.139Z,78.34
2019-01-09T20:46:26.181Z,78.77
2019-01-09T20:51:46.015Z,79.21
2019-01-09T20:57:06.893Z,78.74
2019-01-09T21:02:45.530Z,79.42
2019-01-09T21:08:08.049Z,79.38
2019-01-09T21:13:35.918Z,79.07
2019-01-09T21:19:15.624Z,79.45
2019-01-09T21:24:38.379Z,78.31
2019-01-09T21:30:02.590Z,78.55
2019-01-09T21:35:33.762Z,79.16
2019-01-09T21:41:22.524Z,79.15
2019-01-09T21:46:48.454Z,79.30
2019-01-09T21:52:11.134Z,79.61
2019-01-09T21:57:35.778Z,80.07
2019-01-09T22:02:32.290Z,79.82
2019-01-09T23:41:13.648Z,77.20
2019-01-09T23:46:06.321Z,77.85
2019-01-09T23:52:08.521Z,77.94
2019-01-09T23:57:30.718Z,78.06
